sensor_id;sensor_type;location;lat;lon;timestamp;temperature;humidity
2889;DHT22;1453;42.708;23.282;2022-10-24T00:01:50;12.60;99.90
2889;DHT22;1453;42.708;23.282;2022-10-24T00:04:16;12.60;99.90
2889;DHT22;1453;42.708;23.282;2022-10-24T00:06:42;12.70;99.90
2889;DHT22;1453;42.708;23.282;2022-10-24T00:09:07;12.80;99.90
2889;DHT22;1453;42.708;23.282;2022-10-24T00:11:33;12.90;99.90
2889;DHT22;1453;42.708;23.282;2022-10-24T00:14:00;13.00;99.90
2889;DHT22;1453;42.708;23.282;2022-10-24T00:16:27;12.90;99.90
2889;DHT22;1453;42.708;23.282;2022-10-24T00:18:53;12.90;99.90
2889;DHT22;1453;42.708;23.282;2022-10-24T00:21:19;13.00;99.90
2889;DHT22;1453;42.708;23.282;2022-10-24T00:23:45;13.00;99.90
2889;DHT22;1453;42.708;23.282;2022-10-24T00:26:11;13.00;99.90
2889;DHT22;1453;42.708;23.282;2022-10-24T00:28:38;12.90;99.90
2889;DHT22;1453;42.708;23.282;2022-10-24T00:31:05;12.90;99.90
2889;DHT22;1453;42.708;23.282;2022-10-24T00:33:32;12.90;99.90
2889;DHT22;1453;42.708;23.282;2022-10-24T00:35:58;12.90;99.90
2889;DHT22;1453;42.708;23.282;2022-10-24T00:38:24;12.90;99.90
2889;DHT22;1453;42.708;23.282;2022-10-24T00:40:50;12.90;99.90
2889;DHT22;1453;42.708;23.282;2022-10-24T00:43:22;12.90;99.90
2889;DHT22;1453;42.708;23.282;2022-10-24T00:46:02;12.70;99.90
2889;DHT22;1453;42.708;23.282;2022-10-24T00:48:37;12.40;99.90
2889;DHT22;1453;42.708;23.282;2022-10-24T00:53:48;12.40;99.90
2889;DHT22;1453;42.708;23.282;2022-10-24T00:56:21;12.50;99.90
2889;DHT22;1453;42.708;23.282;2022-10-24T00:58:49;12.40;99.90
2889;DHT22;1453;42.708;23.282;2022-10-24T01:01:16;12.40;99.90
2889;DHT22;1453;42.708;23.282;2022-10-24T01:03:42;12.40;99.90
2889;DHT22;1453;42.708;23.282;2022-10-24T01:17:58;12.20;99.90
2889;DHT22;1453;42.708;23.282;2022-10-24T01:23:53;12.00;99.90
2889;DHT22;1453;42.708;23.282;2022-10-24T01:26:37;12.00;99.90
2889;DHT22;1453;42.708;23.282;2022-10-24T01:37:50;12.00;99.90
2889;DHT22;1453;42.708;23.282;2022-10-24T01:43:14;11.80;99.90
2889;DHT22;1453;42.708;23.282;2022-10-24T01:45:45;12.00;99.90
2889;DHT22;1453;42.708;23.282;2022-10-24T01:48:17;11.70;99.90
2889;DHT22;1453;42.708;23.282;2022-10-24T01:50:46;11.40;99.90
2889;DHT22;1453;42.708;23.282;2022-10-24T01:53:14;11.20;99.90
2889;DHT22;1453;42.708;23.282;2022-10-24T01:55:41;11.30;99.90
2889;DHT22;1453;42.708;23.282;2022-10-24T01:58:08;11.30;99.90
2889;DHT22;1453;42.708;23.282;2022-10-24T02:00:34;11.30;99.90
2889;DHT22;1453;42.708;23.282;2022-10-24T02:03:07;11.40;99.90
2889;DHT22;1453;42.708;23.282;2022-10-24T02:05:51;11.60;99.90
2889;DHT22;1453;42.708;23.282;2022-10-24T02:08:27;11.40;99.90
2889;DHT22;1453;42.708;23.282;2022-10-24T02:11:02;11.70;99.90
2889;DHT22;1453;42.708;23.282;2022-10-24T02:16:28;11.50;99.90
2889;DHT22;1453;42.708;23.282;2022-10-24T02:18:55;11.60;99.90
2889;DHT22;1453;42.708;23.282;2022-10-24T02:21:43;11.70;99.90
2889;DHT22;1453;42.708;23.282;2022-10-24T02:24:56;11.80;99.90
2889;DHT22;1453;42.708;23.282;2022-10-24T02:27:54;11.80;99.90
2889;DHT22;1453;42.708;23.282;2022-10-24T02:30:22;11.80;99.90
2889;DHT22;1453;42.708;23.282;2022-10-24T02:32:52;11.90;99.90
2889;DHT22;1453;42.708;23.282;2022-10-24T02:35:26;12.10;99.90
2889;DHT22;1453;42.708;23.282;2022-10-24T02:38:00;12.10;99.90
2889;DHT22;1453;42.708;23.282;2022-10-24T02:40:29;12.00;99.90
2889;DHT22;1453;42.708;23.282;2022-10-24T02:42:56;12.10;99.90
2889;DHT22;1453;42.708;23.282;2022-10-24T02:45:23;12.10;99.90
2889;DHT22;1453;42.708;23.282;2022-10-24T02:47:52;12.10;99.90
2889;DHT22;1453;42.708;23.282;2022-10-24T02:50:21;12.10;99.90
2889;DHT22;1453;42.708;23.282;2022-10-24T02:52:47;12.20;99.90
2889;DHT22;1453;42.708;23.282;2022-10-24T02:55:13;12.20;99.90
2889;DHT22;1453;42.708;23.282;2022-10-24T02:57:39;12.10;99.90
2889;DHT22;1453;42.708;23.282;2022-10-24T03:00:05;12.10;99.90
2889;DHT22;1453;42.708;23.282;2022-10-24T03:02:32;12.20;99.90
2889;DHT22;1453;42.708;23.282;2022-10-24T03:04:58;12.10;99.90
2889;DHT22;1453;42.708;23.282;2022-10-24T03:07:24;12.20;99.90
2889;DHT22;1453;42.708;23.282;2022-10-24T03:09:50;12.00;99.90
2889;DHT22;1453;42.708;23.282;2022-10-24T03:12:16;12.00;99.90
2889;DHT22;1453;42.708;23.282;2022-10-24T03:14:43;11.90;99.90
2889;DHT22;1453;42.708;23.282;2022-10-24T03:17:08;11.80;99.90
2889;DHT22;1453;42.708;23.282;2022-10-24T03:19:34;11.80;99.90
2889;DHT22;1453;42.708;23.282;2022-10-24T03:22:00;11.70;99.90
2889;DHT22;1453;42.708;23.282;2022-10-24T03:24:26;11.50;99.90
2889;DHT22;1453;42.708;23.282;2022-10-24T03:26:52;11.50;99.90
2889;DHT22;1453;42.708;23.282;2022-10-24T03:29:18;11.60;99.90
2889;DHT22;1453;42.708;23.282;2022-10-24T03:31:45;11.40;99.90
2889;DHT22;1453;42.708;23.282;2022-10-24T03:34:11;11.30;99.90
2889;DHT22;1453;42.708;23.282;2022-10-24T03:36:37;11.40;99.90
2889;DHT22;1453;42.708;23.282;2022-10-24T03:39:03;11.40;99.90
2889;DHT22;1453;42.708;23.282;2022-10-24T03:41:29;11.50;99.90
2889;DHT22;1453;42.708;23.282;2022-10-24T03:43:56;11.40;99.90
2889;DHT22;1453;42.708;23.282;2022-10-24T03:46:21;11.30;99.90
2889;DHT22;1453;42.708;23.282;2022-10-24T03:48:47;11.20;99.90
2889;DHT22;1453;42.708;23.282;2022-10-24T03:51:13;11.30;99.90
2889;DHT22;1453;42.708;23.282;2022-10-24T03:53:40;11.30;99.90
2889;DHT22;1453;42.708;23.282;2022-10-24T03:56:06;11.30;99.90
2889;DHT22;1453;42.708;23.282;2022-10-24T03:58:32;11.30;99.90
2889;DHT22;1453;42.708;23.282;2022-10-24T04:00:58;11.20;99.90
2889;DHT22;1453;42.708;23.282;2022-10-24T04:03:25;11.10;99.90
2889;DHT22;1453;42.708;23.282;2022-10-24T04:05:52;11.20;99.90
2889;DHT22;1453;42.708;23.282;2022-10-24T04:08:18;11.30;99.90
2889;DHT22;1453;42.708;23.282;2022-10-24T04:10:44;11.40;99.90
2889;DHT22;1453;42.708;23.282;2022-10-24T04:13:11;11.30;99.90
2889;DHT22;1453;42.708;23.282;2022-10-24T04:15:36;11.20;99.90
2889;DHT22;1453;42.708;23.282;2022-10-24T04:18:03;11.30;99.90
2889;DHT22;1453;42.708;23.282;2022-10-24T04:20:29;11.30;99.90
2889;DHT22;1453;42.708;23.282;2022-10-24T04:22:55;11.30;99.90
2889;DHT22;1453;42.708;23.282;2022-10-24T04:25:20;11.30;99.90
2889;DHT22;1453;42.708;23.282;2022-10-24T04:27:46;11.20;99.90
2889;DHT22;1453;42.708;23.282;2022-10-24T04:30:13;11.20;99.90
2889;DHT22;1453;42.708;23.282;2022-10-24T04:32:39;11.20;99.90
2889;DHT22;1453;42.708;23.282;2022-10-24T04:35:06;11.20;99.90
2889;DHT22;1453;42.708;23.282;2022-10-24T04:37:32;11.30;99.90
2889;DHT22;1453;42.708;23.282;2022-10-24T04:39:58;11.30;99.90
2889;DHT22;1453;42.708;23.282;2022-10-24T04:42:24;11.20;99.90
2889;DHT22;1453;42.708;23.282;2022-10-24T04:44:50;11.20;99.90
2889;DHT22;1453;42.708;23.282;2022-10-24T04:47:16;11.20;99.90
2889;DHT22;1453;42.708;23.282;2022-10-24T04:49:42;11.10;99.90
2889;DHT22;1453;42.708;23.282;2022-10-24T04:52:08;11.00;99.90
2889;DHT22;1453;42.708;23.282;2022-10-24T04:54:34;11.00;99.90
2889;DHT22;1453;42.708;23.282;2022-10-24T04:57:00;11.00;99.90
2889;DHT22;1453;42.708;23.282;2022-10-24T04:59:26;11.00;99.90
2889;DHT22;1453;42.708;23.282;2022-10-24T05:01:52;11.00;99.90
2889;DHT22;1453;42.708;23.282;2022-10-24T05:04:19;10.90;99.90
2889;DHT22;1453;42.708;23.282;2022-10-24T05:06:45;10.80;99.90
2889;DHT22;1453;42.708;23.282;2022-10-24T05:09:12;10.80;99.90
2889;DHT22;1453;42.708;23.282;2022-10-24T05:11:38;10.80;99.90
2889;DHT22;1453;42.708;23.282;2022-10-24T05:14:04;10.90;99.90
2889;DHT22;1453;42.708;23.282;2022-10-24T05:16:30;11.00;99.90
2889;DHT22;1453;42.708;23.282;2022-10-24T05:18:56;11.00;99.90
2889;DHT22;1453;42.708;23.282;2022-10-24T05:21:22;11.00;99.90
2889;DHT22;1453;42.708;23.282;2022-10-24T05:23:47;11.10;99.90
2889;DHT22;1453;42.708;23.282;2022-10-24T05:26:13;11.20;99.90
2889;DHT22;1453;42.708;23.282;2022-10-24T05:28:39;11.20;99.90
2889;DHT22;1453;42.708;23.282;2022-10-24T05:31:05;11.30;99.90
2889;DHT22;1453;42.708;23.282;2022-10-24T05:33:30;11.40;99.90
2889;DHT22;1453;42.708;23.282;2022-10-24T05:35:56;11.40;99.90
2889;DHT22;1453;42.708;23.282;2022-10-24T05:38:22;11.50;99.90
2889;DHT22;1453;42.708;23.282;2022-10-24T05:40:48;11.50;99.90
2889;DHT22;1453;42.708;23.282;2022-10-24T05:43:16;11.60;99.90
2889;DHT22;1453;42.708;23.282;2022-10-24T05:45:42;11.70;99.90
2889;DHT22;1453;42.708;23.282;2022-10-24T05:48:08;11.80;99.90
2889;DHT22;1453;42.708;23.282;2022-10-24T05:50:34;11.90;99.90
2889;DHT22;1453;42.708;23.282;2022-10-24T05:53:00;12.20;99.90
2889;DHT22;1453;42.708;23.282;2022-10-24T05:55:26;12.20;99.90
2889;DHT22;1453;42.708;23.282;2022-10-24T05:57:52;12.30;99.90
2889;DHT22;1453;42.708;23.282;2022-10-24T06:00:18;12.70;99.90
2889;DHT22;1453;42.708;23.282;2022-10-24T06:02:45;12.90;99.90
2889;DHT22;1453;42.708;23.282;2022-10-24T06:05:11;13.10;99.90
2889;DHT22;1453;42.708;23.282;2022-10-24T06:07:38;13.00;99.90
2889;DHT22;1453;42.708;23.282;2022-10-24T06:10:05;13.50;99.90
2889;DHT22;1453;42.708;23.282;2022-10-24T06:12:31;13.60;99.90
2889;DHT22;1453;42.708;23.282;2022-10-24T06:14:58;14.10;99.90
2889;DHT22;1453;42.708;23.282;2022-10-24T06:17:25;14.30;99.90
2889;DHT22;1453;42.708;23.282;2022-10-24T06:19:51;14.40;99.90
2889;DHT22;1453;42.708;23.282;2022-10-24T06:22:17;14.00;99.90
2889;DHT22;1453;42.708;23.282;2022-10-24T06:24:43;14.60;99.90
2889;DHT22;1453;42.708;23.282;2022-10-24T06:27:09;15.70;99.90
2889;DHT22;1453;42.708;23.282;2022-10-24T06:29:35;16.10;99.90
2889;DHT22;1453;42.708;23.282;2022-10-24T06:32:02;16.60;99.90
2889;DHT22;1453;42.708;23.282;2022-10-24T06:34:28;17.10;99.90
2889;DHT22;1453;42.708;23.282;2022-10-24T06:36:54;17.40;99.90
2889;DHT22;1453;42.708;23.282;2022-10-24T06:39:20;17.60;99.90
2889;DHT22;1453;42.708;23.282;2022-10-24T06:41:46;18.40;99.90
2889;DHT22;1453;42.708;23.282;2022-10-24T06:44:11;18.10;99.90
2889;DHT22;1453;42.708;23.282;2022-10-24T06:46:37;18.40;99.30
2889;DHT22;1453;42.708;23.282;2022-10-24T06:49:03;18.70;97.90
2889;DHT22;1453;42.708;23.282;2022-10-24T06:51:29;18.70;98.10
2889;DHT22;1453;42.708;23.282;2022-10-24T06:53:56;19.20;96.80
2889;DHT22;1453;42.708;23.282;2022-10-24T06:56:22;18.90;96.80
2889;DHT22;1453;42.708;23.282;2022-10-24T06:58:48;19.10;95.20
2889;DHT22;1453;42.708;23.282;2022-10-24T07:01:20;19.00;95.50
2889;DHT22;1453;42.708;23.282;2022-10-24T07:03:47;19.40;95.40
2889;DHT22;1453;42.708;23.282;2022-10-24T07:06:22;20.00;93.20
2889;DHT22;1453;42.708;23.282;2022-10-24T07:08:52;20.20;92.00
2889;DHT22;1453;42.708;23.282;2022-10-24T07:11:19;20.30;91.30
2889;DHT22;1453;42.708;23.282;2022-10-24T07:13:45;20.60;90.90
2889;DHT22;1453;42.708;23.282;2022-10-24T07:16:12;20.90;90.00
2889;DHT22;1453;42.708;23.282;2022-10-24T07:18:37;21.20;89.30
2889;DHT22;1453;42.708;23.282;2022-10-24T07:21:10;21.50;87.50
2889;DHT22;1453;42.708;23.282;2022-10-24T07:23:39;21.60;86.10
2889;DHT22;1453;42.708;23.282;2022-10-24T07:26:09;21.40;85.40
2889;DHT22;1453;42.708;23.282;2022-10-24T07:28:38;22.00;85.50
2889;DHT22;1453;42.708;23.282;2022-10-24T07:31:05;22.00;83.80
2889;DHT22;1453;42.708;23.282;2022-10-24T07:33:31;22.80;82.20
2889;DHT22;1453;42.708;23.282;2022-10-24T07:35:57;21.70;82.10
2889;DHT22;1453;42.708;23.282;2022-10-24T07:38:23;21.80;82.40
2889;DHT22;1453;42.708;23.282;2022-10-24T07:40:50;22.30;81.20
2889;DHT22;1453;42.708;23.282;2022-10-24T07:43:16;22.70;79.80
2889;DHT22;1453;42.708;23.282;2022-10-24T07:45:43;23.20;78.60
2889;DHT22;1453;42.708;23.282;2022-10-24T07:48:09;23.10;78.10
2889;DHT22;1453;42.708;23.282;2022-10-24T07:50:41;23.70;76.50
2889;DHT22;1453;42.708;23.282;2022-10-24T07:53:10;23.20;76.10
2889;DHT22;1453;42.708;23.282;2022-10-24T07:55:41;23.70;76.00
2889;DHT22;1453;42.708;23.282;2022-10-24T07:58:08;24.10;73.70
2889;DHT22;1453;42.708;23.282;2022-10-24T08:00:34;22.20;74.00
2889;DHT22;1453;42.708;23.282;2022-10-24T08:03:01;23.50;76.60
2889;DHT22;1453;42.708;23.282;2022-10-24T08:05:27;23.70;74.90
2889;DHT22;1453;42.708;23.282;2022-10-24T08:07:53;23.10;74.70
2889;DHT22;1453;42.708;23.282;2022-10-24T08:10:21;23.90;75.10
2889;DHT22;1453;42.708;23.282;2022-10-24T08:12:47;24.10;74.10
2889;DHT22;1453;42.708;23.282;2022-10-24T08:15:12;24.70;72.20
2889;DHT22;1453;42.708;23.282;2022-10-24T08:17:38;24.90;70.90
2889;DHT22;1453;42.708;23.282;2022-10-24T08:20:07;25.40;69.80
2889;DHT22;1453;42.708;23.282;2022-10-24T08:22:34;26.20;68.80
2889;DHT22;1453;42.708;23.282;2022-10-24T08:25:02;26.10;67.20
2889;DHT22;1453;42.708;23.282;2022-10-24T08:27:30;25.80;66.70
2889;DHT22;1453;42.708;23.282;2022-10-24T08:29:56;26.30;67.10
2889;DHT22;1453;42.708;23.282;2022-10-24T08:32:22;26.00;65.80
2889;DHT22;1453;42.708;23.282;2022-10-24T08:34:48;25.80;65.90
2889;DHT22;1453;42.708;23.282;2022-10-24T08:37:13;25.90;66.10
2889;DHT22;1453;42.708;23.282;2022-10-24T08:39:39;25.40;67.00
2889;DHT22;1453;42.708;23.282;2022-10-24T08:42:07;26.00;66.00
2889;DHT22;1453;42.708;23.282;2022-10-24T08:44:43;25.90;66.60
2889;DHT22;1453;42.708;23.282;2022-10-24T08:50:31;27.00;64.60
2889;DHT22;1453;42.708;23.282;2022-10-24T08:53:10;27.30;63.20
2889;DHT22;1453;42.708;23.282;2022-10-24T08:55:44;27.90;62.00
2889;DHT22;1453;42.708;23.282;2022-10-24T08:58:16;27.70;61.00
2889;DHT22;1453;42.708;23.282;2022-10-24T09:00:46;27.80;61.40
2889;DHT22;1453;42.708;23.282;2022-10-24T09:06:23;27.80;60.70
2889;DHT22;1453;42.708;23.282;2022-10-24T09:13:53;27.40;60.20
2889;DHT22;1453;42.708;23.282;2022-10-24T09:16:21;27.50;59.80
2889;DHT22;1453;42.708;23.282;2022-10-24T09:18:51;27.20;60.10
2889;DHT22;1453;42.708;23.282;2022-10-24T09:21:19;27.10;60.70
2889;DHT22;1453;42.708;23.282;2022-10-24T09:23:46;27.90;61.50
2889;DHT22;1453;42.708;23.282;2022-10-24T09:26:17;27.30;59.40
2889;DHT22;1453;42.708;23.282;2022-10-24T09:28:48;27.90;60.30
2889;DHT22;1453;42.708;23.282;2022-10-24T09:31:19;27.10;60.30
2889;DHT22;1453;42.708;23.282;2022-10-24T09:33:48;28.10;60.80
2889;DHT22;1453;42.708;23.282;2022-10-24T09:36:17;27.20;61.20
2889;DHT22;1453;42.708;23.282;2022-10-24T09:38:45;27.80;60.00
2889;DHT22;1453;42.708;23.282;2022-10-24T09:41:24;28.00;59.40
2889;DHT22;1453;42.708;23.282;2022-10-24T09:46:26;29.00;58.00
2889;DHT22;1453;42.708;23.282;2022-10-24T09:51:39;29.40;58.40
2889;DHT22;1453;42.708;23.282;2022-10-24T09:56:46;29.20;59.30
2889;DHT22;1453;42.708;23.282;2022-10-24T10:04:47;30.50;56.50
2889;DHT22;1453;42.708;23.282;2022-10-24T10:07:25;30.40;55.50
2889;DHT22;1453;42.708;23.282;2022-10-24T10:09:54;28.90;57.40
2889;DHT22;1453;42.708;23.282;2022-10-24T10:12:30;30.00;57.00
2889;DHT22;1453;42.708;23.282;2022-10-24T10:14:57;30.00;56.60
2889;DHT22;1453;42.708;23.282;2022-10-24T10:17:26;30.90;56.10
2889;DHT22;1453;42.708;23.282;2022-10-24T10:19:53;31.10;54.80
2889;DHT22;1453;42.708;23.282;2022-10-24T10:22:28;31.10;54.20
2889;DHT22;1453;42.708;23.282;2022-10-24T10:24:57;31.00;55.50
2889;DHT22;1453;42.708;23.282;2022-10-24T10:27:39;30.50;55.10
2889;DHT22;1453;42.708;23.282;2022-10-24T10:32:52;30.60;54.80
2889;DHT22;1453;42.708;23.282;2022-10-24T10:35:35;30.30;54.30
2889;DHT22;1453;42.708;23.282;2022-10-24T10:50:00;31.10;54.50
2889;DHT22;1453;42.708;23.282;2022-10-24T10:52:35;31.10;54.20
2889;DHT22;1453;42.708;23.282;2022-10-24T11:00:15;31.70;52.50
2889;DHT22;1453;42.708;23.282;2022-10-24T11:09:11;32.30;53.10
2889;DHT22;1453;42.708;23.282;2022-10-24T11:11:42;31.70;53.00
2889;DHT22;1453;42.708;23.282;2022-10-24T11:14:14;32.90;52.40
2889;DHT22;1453;42.708;23.282;2022-10-24T11:16:48;32.70;51.70
2889;DHT22;1453;42.708;23.282;2022-10-24T11:19:29;30.90;53.00
2889;DHT22;1453;42.708;23.282;2022-10-24T11:22:02;30.60;53.10
2889;DHT22;1453;42.708;23.282;2022-10-24T11:24:33;30.20;55.70
2889;DHT22;1453;42.708;23.282;2022-10-24T11:27:12;31.20;56.30
2889;DHT22;1453;42.708;23.282;2022-10-24T11:32:46;31.80;54.10
2889;DHT22;1453;42.708;23.282;2022-10-24T11:35:31;32.50;56.00
2889;DHT22;1453;42.708;23.282;2022-10-24T11:40:45;30.60;53.40
2889;DHT22;1453;42.708;23.282;2022-10-24T11:43:26;31.40;52.80
2889;DHT22;1453;42.708;23.282;2022-10-24T11:48:47;32.80;52.10
2889;DHT22;1453;42.708;23.282;2022-10-24T11:51:21;33.50;51.50
2889;DHT22;1453;42.708;23.282;2022-10-24T11:56:42;33.00;51.00
2889;DHT22;1453;42.708;23.282;2022-10-24T11:59:16;33.90;50.50
2889;DHT22;1453;42.708;23.282;2022-10-24T12:11:23;34.50;49.20
2889;DHT22;1453;42.708;23.282;2022-10-24T12:19:05;33.40;55.80
2889;DHT22;1453;42.708;23.282;2022-10-24T12:21:39;33.70;50.10
2889;DHT22;1453;42.708;23.282;2022-10-24T12:24:40;32.80;50.70
2889;DHT22;1453;42.708;23.282;2022-10-24T12:27:07;32.60;51.20
2889;DHT22;1453;42.708;23.282;2022-10-24T12:30:20;33.50;50.30
2889;DHT22;1453;42.708;23.282;2022-10-24T12:33:29;34.10;49.50
2889;DHT22;1453;42.708;23.282;2022-10-24T12:35:55;34.00;49.30
2889;DHT22;1453;42.708;23.282;2022-10-24T12:40:58;33.40;50.10
2889;DHT22;1453;42.708;23.282;2022-10-24T12:43:46;33.20;49.80
2889;DHT22;1453;42.708;23.282;2022-10-24T12:51:39;34.00;49.40
2889;DHT22;1453;42.708;23.282;2022-10-24T12:59:24;33.40;49.50
2889;DHT22;1453;42.708;23.282;2022-10-24T13:10:43;32.80;48.80
2889;DHT22;1453;42.708;23.282;2022-10-24T13:21:46;32.20;50.60
2889;DHT22;1453;42.708;23.282;2022-10-24T13:31:50;33.50;49.50
2889;DHT22;1453;42.708;23.282;2022-10-24T13:34:42;33.80;49.30
2889;DHT22;1453;42.708;23.282;2022-10-24T13:39:47;33.30;49.20
2889;DHT22;1453;42.708;23.282;2022-10-24T13:44:59;32.80;49.90
2889;DHT22;1453;42.708;23.282;2022-10-24T13:47:32;33.00;49.30
2889;DHT22;1453;42.708;23.282;2022-10-24T13:55:29;32.60;49.00
2889;DHT22;1453;42.708;23.282;2022-10-24T13:58:09;31.20;50.90
2889;DHT22;1453;42.708;23.282;2022-10-24T14:00:58;29.80;52.30
2889;DHT22;1453;42.708;23.282;2022-10-24T14:03:28;30.20;52.60
2889;DHT22;1453;42.708;23.282;2022-10-24T14:05:57;31.10;51.70
2889;DHT22;1453;42.708;23.282;2022-10-24T14:08:38;31.10;51.10
2889;DHT22;1453;42.708;23.282;2022-10-24T14:11:21;30.30;51.90
2889;DHT22;1453;42.708;23.282;2022-10-24T14:13:51;29.70;52.30
2889;DHT22;1453;42.708;23.282;2022-10-24T14:16:31;29.10;54.30
2889;DHT22;1453;42.708;23.282;2022-10-24T14:19:20;27.90;55.00
2889;DHT22;1453;42.708;23.282;2022-10-24T14:21:49;27.30;56.20
2889;DHT22;1453;42.708;23.282;2022-10-24T14:24:18;26.90;56.80
2889;DHT22;1453;42.708;23.282;2022-10-24T14:26:47;26.80;56.90
2889;DHT22;1453;42.708;23.282;2022-10-24T14:29:27;26.60;57.00
2889;DHT22;1453;42.708;23.282;2022-10-24T14:34:25;25.80;58.40
2889;DHT22;1453;42.708;23.282;2022-10-24T14:36:51;25.20;59.60
2889;DHT22;1453;42.708;23.282;2022-10-24T14:39:19;25.00;60.50
2889;DHT22;1453;42.708;23.282;2022-10-24T14:41:49;24.70;61.80
2889;DHT22;1453;42.708;23.282;2022-10-24T14:44:18;24.50;62.80
2889;DHT22;1453;42.708;23.282;2022-10-24T14:46:46;24.20;64.00
2889;DHT22;1453;42.708;23.282;2022-10-24T14:49:30;24.10;64.70
2889;DHT22;1453;42.708;23.282;2022-10-24T14:52:22;24.10;64.90
2889;DHT22;1453;42.708;23.282;2022-10-24T14:57:26;24.00;65.40
2889;DHT22;1453;42.708;23.282;2022-10-24T14:59:54;23.90;65.70
2889;DHT22;1453;42.708;23.282;2022-10-24T15:02:35;23.90;66.10
2889;DHT22;1453;42.708;23.282;2022-10-24T15:07:45;23.60;66.90
2889;DHT22;1453;42.708;23.282;2022-10-24T15:18:16;23.30;70.10
2889;DHT22;1453;42.708;23.282;2022-10-24T15:20:48;23.10;71.30
2889;DHT22;1453;42.708;23.282;2022-10-24T15:23:24;23.00;73.30
2889;DHT22;1453;42.708;23.282;2022-10-24T15:28:53;22.80;75.20
2889;DHT22;1453;42.708;23.282;2022-10-24T15:31:42;22.80;76.10
2889;DHT22;1453;42.708;23.282;2022-10-24T15:34:17;22.30;79.50
2889;DHT22;1453;42.708;23.282;2022-10-24T15:36:46;22.20;81.90
2889;DHT22;1453;42.708;23.282;2022-10-24T15:39:16;22.00;84.10
2889;DHT22;1453;42.708;23.282;2022-10-24T15:41:45;21.70;88.20
2889;DHT22;1453;42.708;23.282;2022-10-24T15:44:16;21.40;91.30
2889;DHT22;1453;42.708;23.282;2022-10-24T15:46:51;21.20;93.20
2889;DHT22;1453;42.708;23.282;2022-10-24T15:49:17;21.10;95.70
2889;DHT22;1453;42.708;23.282;2022-10-24T15:51:45;20.90;98.00
2889;DHT22;1453;42.708;23.282;2022-10-24T15:54:13;20.90;98.50
2889;DHT22;1453;42.708;23.282;2022-10-24T15:56:40;20.90;99.70
2889;DHT22;1453;42.708;23.282;2022-10-24T15:59:07;20.90;99.90
2889;DHT22;1453;42.708;23.282;2022-10-24T16:01:35;20.90;99.90
2889;DHT22;1453;42.708;23.282;2022-10-24T16:04:05;20.70;99.90
2889;DHT22;1453;42.708;23.282;2022-10-24T16:06:32;20.80;99.90
2889;DHT22;1453;42.708;23.282;2022-10-24T16:08:59;20.80;99.90
2889;DHT22;1453;42.708;23.282;2022-10-24T16:11:25;20.70;99.90
2889;DHT22;1453;42.708;23.282;2022-10-24T16:13:51;20.50;99.90
2889;DHT22;1453;42.708;23.282;2022-10-24T16:16:17;20.40;99.90
2889;DHT22;1453;42.708;23.282;2022-10-24T16:18:43;20.20;99.90
2889;DHT22;1453;42.708;23.282;2022-10-24T16:21:16;20.10;99.90
2889;DHT22;1453;42.708;23.282;2022-10-24T16:23:44;20.10;99.90
2889;DHT22;1453;42.708;23.282;2022-10-24T16:26:11;20.40;99.90
2889;DHT22;1453;42.708;23.282;2022-10-24T16:28:37;20.10;99.90
2889;DHT22;1453;42.708;23.282;2022-10-24T16:31:04;19.80;99.90
2889;DHT22;1453;42.708;23.282;2022-10-24T16:33:30;19.60;99.90
2889;DHT22;1453;42.708;23.282;2022-10-24T16:35:56;19.70;99.90
2889;DHT22;1453;42.708;23.282;2022-10-24T16:38:22;19.70;99.90
2889;DHT22;1453;42.708;23.282;2022-10-24T16:40:48;19.70;99.90
2889;DHT22;1453;42.708;23.282;2022-10-24T16:43:16;19.90;99.90
2889;DHT22;1453;42.708;23.282;2022-10-24T16:45:44;20.30;99.90
2889;DHT22;1453;42.708;23.282;2022-10-24T16:48:12;20.50;99.90
2889;DHT22;1453;42.708;23.282;2022-10-24T16:50:41;20.50;99.90
2889;DHT22;1453;42.708;23.282;2022-10-24T16:53:10;20.60;99.90
2889;DHT22;1453;42.708;23.282;2022-10-24T16:55:36;20.60;99.90
2889;DHT22;1453;42.708;23.282;2022-10-24T16:58:02;20.40;99.90
2889;DHT22;1453;42.708;23.282;2022-10-24T17:00:28;20.30;99.90
2889;DHT22;1453;42.708;23.282;2022-10-24T17:02:55;20.40;99.90
2889;DHT22;1453;42.708;23.282;2022-10-24T17:05:24;20.40;99.90
2889;DHT22;1453;42.708;23.282;2022-10-24T17:07:52;20.40;99.90
2889;DHT22;1453;42.708;23.282;2022-10-24T17:10:18;19.20;99.90
2889;DHT22;1453;42.708;23.282;2022-10-24T17:12:44;19.30;99.90
2889;DHT22;1453;42.708;23.282;2022-10-24T17:15:16;19.50;99.90
2889;DHT22;1453;42.708;23.282;2022-10-24T17:17:42;19.70;99.90
2889;DHT22;1453;42.708;23.282;2022-10-24T17:20:09;20.00;99.90
2889;DHT22;1453;42.708;23.282;2022-10-24T17:22:38;20.20;99.90
2889;DHT22;1453;42.708;23.282;2022-10-24T17:25:09;20.40;99.90
2889;DHT22;1453;42.708;23.282;2022-10-24T17:27:40;20.50;99.90
2889;DHT22;1453;42.708;23.282;2022-10-24T17:30:09;20.40;99.90
2889;DHT22;1453;42.708;23.282;2022-10-24T17:32:40;19.60;99.90
2889;DHT22;1453;42.708;23.282;2022-10-24T17:35:06;18.70;99.90
2889;DHT22;1453;42.708;23.282;2022-10-24T17:37:40;18.40;99.90
2889;DHT22;1453;42.708;23.282;2022-10-24T17:40:25;18.60;99.90
2889;DHT22;1453;42.708;23.282;2022-10-24T17:42:53;18.60;99.90
2889;DHT22;1453;42.708;23.282;2022-10-24T17:45:21;18.40;99.90
2889;DHT22;1453;42.708;23.282;2022-10-24T17:47:48;18.30;99.90
2889;DHT22;1453;42.708;23.282;2022-10-24T17:50:14;18.20;99.90
2889;DHT22;1453;42.708;23.282;2022-10-24T17:52:41;18.40;99.90
2889;DHT22;1453;42.708;23.282;2022-10-24T17:57:45;18.80;99.90
2889;DHT22;1453;42.708;23.282;2022-10-24T18:00:11;18.70;99.90
2889;DHT22;1453;42.708;23.282;2022-10-24T18:02:46;18.80;99.90
2889;DHT22;1453;42.708;23.282;2022-10-24T18:05:13;19.10;99.90
2889;DHT22;1453;42.708;23.282;2022-10-24T18:07:40;19.30;99.90
2889;DHT22;1453;42.708;23.282;2022-10-24T18:10:07;19.50;99.90
2889;DHT22;1453;42.708;23.282;2022-10-24T18:12:34;19.80;99.90
2889;DHT22;1453;42.708;23.282;2022-10-24T18:15:03;19.30;99.90
2889;DHT22;1453;42.708;23.282;2022-10-24T18:17:31;19.30;99.90
2889;DHT22;1453;42.708;23.282;2022-10-24T18:19:57;19.20;99.90
2889;DHT22;1453;42.708;23.282;2022-10-24T18:22:23;19.00;99.90
2889;DHT22;1453;42.708;23.282;2022-10-24T18:24:49;19.10;99.90
2889;DHT22;1453;42.708;23.282;2022-10-24T18:27:15;19.10;99.90
2889;DHT22;1453;42.708;23.282;2022-10-24T18:29:41;18.80;99.90
2889;DHT22;1453;42.708;23.282;2022-10-24T18:32:07;18.90;99.90
2889;DHT22;1453;42.708;23.282;2022-10-24T18:34:32;19.10;99.90
2889;DHT22;1453;42.708;23.282;2022-10-24T18:36:58;19.20;99.90
2889;DHT22;1453;42.708;23.282;2022-10-24T18:39:24;19.20;99.90
2889;DHT22;1453;42.708;23.282;2022-10-24T18:42:00;19.20;99.90
2889;DHT22;1453;42.708;23.282;2022-10-24T18:44:31;19.30;99.90
2889;DHT22;1453;42.708;23.282;2022-10-24T18:47:00;19.30;99.90
2889;DHT22;1453;42.708;23.282;2022-10-24T18:49:29;19.20;99.90
2889;DHT22;1453;42.708;23.282;2022-10-24T18:57:42;18.70;99.90
2889;DHT22;1453;42.708;23.282;2022-10-24T19:00:10;18.50;99.90
2889;DHT22;1453;42.708;23.282;2022-10-24T19:05:46;18.10;99.90
2889;DHT22;1453;42.708;23.282;2022-10-24T19:08:15;18.00;99.90